createdAt,value
2022-08-22T00:02:08.983Z,71.30
2022-08-22T00:02:45.527Z,44.60
2022-08-22T00:02:49.713Z,71.57
2022-08-22T00:04:59.713Z,71.02
2022-08-22T00:07:47.516Z,71.26
2022-08-22T00:10:29.140Z,71.16
2022-08-22T00:13:08.292Z,71.26
2022-08-22T00:15:51.125Z,71.25
2022-08-22T00:18:50.862Z,71.29
2022-08-22T00:21:34.171Z,71.19
2022-08-22T00:24:35.024Z,71.23
2022-08-22T00:27:25.353Z,71.03
2022-08-22T00:30:15.261Z,71.14
2022-08-22T00:33:19.609Z,71.04
2022-08-22T00:36:08.966Z,70.60
2022-08-22T00:38:48.111Z,69.90
2022-08-22T00:41:47.012Z,70.53
2022-08-22T00:44:56.233Z,70.11
2022-08-22T00:47:40.093Z,70.27
2022-08-22T00:50:43.267Z,70.52
2022-08-22T00:54:16.761Z,71.26
2022-08-22T00:57:30.901Z,71.57
2022-08-22T01:00:25.071Z,71.76
2022-08-22T01:03:23.780Z,71.95
2022-08-22T01:05:59.180Z,72.03
2022-08-22T01:08:52.391Z,72.23
2022-08-22T01:11:54.815Z,72.40
2022-08-22T01:14:44.771Z,72.59
2022-08-22T01:17:29.329Z,72.83
2022-08-22T01:20:21.788Z,73.11
2022-08-22T01:23:00.698Z,73.37
2022-08-22T01:25:51.000Z,73.58
2022-08-22T01:29:10.426Z,73.75
2022-08-22T01:32:19.989Z,73.75
2022-08-22T01:35:26.471Z,73.81
2022-08-22T01:38:19.670Z,73.90
2022-08-22T01:41:20.339Z,73.86
2022-08-22T01:44:16.554Z,73.67
2022-08-22T01:47:05.347Z,73.61
2022-08-22T01:49:41.242Z,73.27
2022-08-22T01:52:21.915Z,73.35
2022-08-22T01:55:07.336Z,73.60
2022-08-22T01:57:57.520Z,74.03
2022-08-22T02:00:35.871Z,74.27
2022-08-22T02:03:22.850Z,74.42
2022-08-22T02:06:47.256Z,74.56
2022-08-22T02:09:43.745Z,74.62
2022-08-22T02:12:44.673Z,74.89
2022-08-22T02:15:27.855Z,74.74
2022-08-22T02:18:07.245Z,74.94
2022-08-22T02:20:58.299Z,75.00
2022-08-22T02:24:31.075Z,75.01
2022-08-22T02:28:09.967Z,75.16
2022-08-22T02:31:01.890Z,75.27
2022-08-22T02:33:50.222Z,75.25
2022-08-22T02:36:34.643Z,75.28
2022-08-22T02:39:23.515Z,75.32
2022-08-22T02:42:36.828Z,75.44
2022-08-22T02:45:17.718Z,75.68
2022-08-22T02:48:21.352Z,75.87
2022-08-22T02:51:38.453Z,76.00
2022-08-22T02:54:29.766Z,76.06
2022-08-22T02:57:15.103Z,76.22
2022-08-22T03:00:38.386Z,76.40
2022-08-22T03:03:27.561Z,76.57
2022-08-22T03:07:00.416Z,76.70
2022-08-22T03:09:41.086Z,77.00
2022-08-22T03:12:26.612Z,77.19
2022-08-22T03:15:23.179Z,77.18
2022-08-22T03:18:18.067Z,77.25
2022-08-22T03:21:15.342Z,77.31
2022-08-22T03:23:49.066Z,77.36
2022-08-22T03:26:23.728Z,77.43
2022-08-22T03:29:12.754Z,77.54
2022-08-22T03:32:18.527Z,77.67
2022-08-22T03:35:12.156Z,77.77
2022-08-22T03:37:46.425Z,77.71
2022-08-22T03:40:48.171Z,77.72
2022-08-22T03:43:44.078Z,77.87
2022-08-22T03:46:44.170Z,78.06
2022-08-22T03:50:08.920Z,78.20
2022-08-22T03:53:15.237Z,78.32
2022-08-22T03:56:25.340Z,78.36
2022-08-22T03:59:32.580Z,78.50
2022-08-22T04:02:45.149Z,78.55
2022-08-22T04:05:58.069Z,78.45
2022-08-22T04:08:44.012Z,78.53
2022-08-22T04:11:46.401Z,78.77
2022-08-22T04:15:02.112Z,79.07
2022-08-22T04:17:56.666Z,79.12
2022-08-22T04:21:03.385Z,79.24
2022-08-22T04:23:44.446Z,79.25
2022-08-22T04:27:16.572Z,79.22
2022-08-22T04:30:31.579Z,79.14
2022-08-22T04:33:24.960Z,79.12
2022-08-22T04:36:09.463Z,79.19
2022-08-22T04:39:03.836Z,79.30
2022-08-22T04:41:54.578Z,79.37
2022-08-22T04:44:45.060Z,79.47
2022-08-22T04:47:38.886Z,79.50
2022-08-22T04:50:31.821Z,79.47
2022-08-22T04:53:19.517Z,79.40
2022-08-22T04:55:58.126Z,79.29
2022-08-22T04:59:13.989Z,79.39
2022-08-22T05:01:56.563Z,79.41
2022-08-22T05:04:36.120Z,79.40
2022-08-22T05:07:24.414Z,79.48
2022-08-22T05:10:24.055Z,79.53
2022-08-22T05:13:44.352Z,79.67
2022-08-22T05:16:23.266Z,80.03
2022-08-22T05:19:04.140Z,80.10
2022-08-22T05:21:40.048Z,79.97
2022-08-22T05:24:28.112Z,79.99
2022-08-22T05:27:01.974Z,79.63
2022-08-22T05:29:34.275Z,79.38
2022-08-22T05:32:12.066Z,79.10
2022-08-22T05:34:47.969Z,78.94
2022-08-22T05:37:36.337Z,78.80
2022-08-22T05:40:06.978Z,78.87
2022-08-22T05:42:38.777Z,78.97
2022-08-22T05:45:12.293Z,79.00
2022-08-22T05:48:05.364Z,78.94
2022-08-22T05:50:42.574Z,78.87
2022-08-22T05:53:42.788Z,78.74
2022-08-22T05:56:29.407Z,78.62
2022-08-22T05:59:16.188Z,78.55
2022-08-22T06:02:10.531Z,78.63
2022-08-22T06:04:56.246Z,78.75
2022-08-22T06:07:40.672Z,78.65
2022-08-22T06:10:25.951Z,78.64
2022-08-22T06:13:13.128Z,78.67
2022-08-22T06:15:53.213Z,78.71
2022-08-22T06:18:30.685Z,78.58
2022-08-22T06:21:05.996Z,78.54
2022-08-22T06:23:48.568Z,78.66
2022-08-22T06:26:21.471Z,78.65
2022-08-22T06:28:57.159Z,78.88
2022-08-22T06:31:49.713Z,79.09
2022-08-22T06:34:28.248Z,79.07
2022-08-22T06:37:03.092Z,78.90
2022-08-22T06:39:37.778Z,78.82
2022-08-22T06:42:16.723Z,78.74
2022-08-22T06:45:02.074Z,78.87
2022-08-22T06:47:51.007Z,79.11
2022-08-22T06:50:37.712Z,79.18
2022-08-22T06:53:22.819Z,79.19
2022-08-22T06:56:04.035Z,79.19
2022-08-22T06:58:49.156Z,79.25
2022-08-22T07:01:27.221Z,79.42
2022-08-22T07:04:11.054Z,79.50
2022-08-22T07:06:51.276Z,79.44
2022-08-22T07:09:56.502Z,79.47
2022-08-22T07:12:33.384Z,79.77
2022-08-22T07:15:38.239Z,79.89
2022-08-22T07:18:21.164Z,80.01
2022-08-22T07:20:58.242Z,80.01
2022-08-22T07:23:47.106Z,79.92
2022-08-22T07:26:29.309Z,79.84
2022-08-22T07:29:29.143Z,79.85
2022-08-22T07:32:07.700Z,80.09
2022-08-22T07:35:23.021Z,80.39
2022-08-22T07:38:26.101Z,80.59
2022-08-22T07:41:39.933Z,80.77
2022-08-22T07:44:32.290Z,81.00
2022-08-22T07:47:18.189Z,81.00
2022-08-22T07:50:08.070Z,80.84
2022-08-22T07:52:48.340Z,80.87
2022-08-22T07:55:27.653Z,80.87
2022-08-22T07:58:04.056Z,80.74
2022-08-22T08:00:35.645Z,80.64
2022-08-22T08:03:09.625Z,80.46
2022-08-22T08:05:44.788Z,80.44
2022-08-22T08:08:29.253Z,80.42
2022-08-22T08:11:02.415Z,80.55
2022-08-22T08:13:41.916Z,80.71
2022-08-22T08:16:21.666Z,80.69
2022-08-22T08:18:54.548Z,80.64
2022-08-22T08:21:40.845Z,80.70
2022-08-22T08:24:17.129Z,80.69
2022-08-22T08:27:18.312Z,80.85
2022-08-22T08:30:24.989Z,81.02
2022-08-22T08:33:24.659Z,81.10
2022-08-22T08:36:12.699Z,81.07
2022-08-22T08:39:15.392Z,80.77
2022-08-22T08:42:02.631Z,80.80
2022-08-22T08:45:08.347Z,80.71
2022-08-22T08:48:24.379Z,80.90
2022-08-22T08:51:32.368Z,80.88
2022-08-22T08:54:44.755Z,80.85
2022-08-22T08:57:46.493Z,80.77
2022-08-22T09:00:40.180Z,80.72
2022-08-22T09:03:40.176Z,80.60
2022-08-22T09:06:31.398Z,80.64
2022-08-22T09:09:30.883Z,80.88
2022-08-22T09:12:56.210Z,81.22
2022-08-22T09:16:31.678Z,81.52
2022-08-22T09:19:57.475Z,81.87
2022-08-22T09:23:19.232Z,81.78
2022-08-22T09:26:29.346Z,81.80
2022-08-22T09:29:54.931Z,81.88
2022-08-22T09:33:10.719Z,81.93
2022-08-22T09:35:51.979Z,82.00
2022-08-22T09:38:33.501Z,82.21
2022-08-22T09:41:42.376Z,82.30
2022-08-22T09:45:01.806Z,82.27
2022-08-22T09:48:32.988Z,81.99
2022-08-22T09:51:32.631Z,82.06
2022-08-22T09:54:38.493Z,82.26
2022-08-22T09:57:22.716Z,82.38
2022-08-22T10:00:07.986Z,82.52
2022-08-22T10:02:53.940Z,82.48
2022-08-22T10:05:43.547Z,82.41
2022-08-22T10:08:38.155Z,82.27
2022-08-22T10:11:19.909Z,82.18
2022-08-22T10:14:01.861Z,82.02
2022-08-22T10:16:52.215Z,81.94
2022-08-22T10:19:46.539Z,81.90
2022-08-22T10:22:29.871Z,81.91
2022-08-22T10:25:42.177Z,81.86
2022-08-22T10:28:18.589Z,81.79
2022-08-22T10:31:13.953Z,81.87
2022-08-22T10:34:08.496Z,81.90
2022-08-22T10:37:32.327Z,81.89
2022-08-22T10:40:36.745Z,81.94
2022-08-22T10:43:31.496Z,81.91
2022-08-22T10:46:18.091Z,81.76
2022-08-22T10:49:00.667Z,81.70
2022-08-22T10:51:56.529Z,81.74
2022-08-22T10:54:54.626Z,82.02
2022-08-22T10:57:52.554Z,82.10
2022-08-22T11:00:56.815Z,82.00
2022-08-22T11:03:55.569Z,82.11
2022-08-22T11:06:34.521Z,82.06
2022-08-22T11:09:40.552Z,82.11
2022-08-22T11:12:36.103Z,82.10
2022-08-22T11:15:40.888Z,82.04
2022-08-22T11:19:01.942Z,81.97
2022-08-22T11:22:26.800Z,81.94
2022-08-22T11:25:28.671Z,81.72
2022-08-22T11:28:39.529Z,81.59
2022-08-22T11:31:47.260Z,81.59
2022-08-22T11:34:49.096Z,81.64
2022-08-22T11:37:51.366Z,81.60
2022-08-22T11:40:55.258Z,81.42
2022-08-22T11:44:09.839Z,81.35
2022-08-22T11:46:51.387Z,81.24
2022-08-22T11:49:33.486Z,81.24
2022-08-22T11:52:35.791Z,81.28
2022-08-22T11:55:20.180Z,81.40
2022-08-22T11:58:13.027Z,81.43
2022-08-22T12:00:49.633Z,81.19
2022-08-22T12:03:52.439Z,80.99
2022-08-22T12:07:18.781Z,80.95
2022-08-22T12:10:17.720Z,80.82
2022-08-22T12:13:17.584Z,80.80
2022-08-22T12:16:08.767Z,80.70
2022-08-22T12:19:15.674Z,80.61
2022-08-22T12:21:57.114Z,80.53
2022-08-22T12:25:05.307Z,80.74
2022-08-22T12:27:50.958Z,80.80
2022-08-22T12:31:02.519Z,80.92
2022-08-22T12:33:44.721Z,81.09
2022-08-22T12:36:54.422Z,81.08
2022-08-22T12:40:12.470Z,81.04
2022-08-22T12:42:55.689Z,80.85
2022-08-22T12:45:25.378Z,80.91
2022-08-22T12:48:37.857Z,80.98
2022-08-22T12:51:46.823Z,81.03
2022-08-22T12:54:28.172Z,81.08
2022-08-22T12:57:24.490Z,81.16
2022-08-22T13:00:38.019Z,81.10
2022-08-22T13:03:14.514Z,80.89
2022-08-22T13:05:56.252Z,80.85
2022-08-22T13:08:41.537Z,80.92
2022-08-22T13:11:22.463Z,81.09
2022-08-22T13:14:01.721Z,81.10
2022-08-22T13:16:51.046Z,81.20
2022-08-22T13:19:33.700Z,81.20
2022-08-22T13:22:21.260Z,81.26
2022-08-22T13:25:01.078Z,81.20
2022-08-22T13:28:05.017Z,81.14
2022-08-22T13:30:42.272Z,81.10
2022-08-22T13:33:28.409Z,80.98
2022-08-22T13:36:14.782Z,80.81
2022-08-22T13:38:56.588Z,80.76
2022-08-22T13:41:32.583Z,80.72
2022-08-22T13:44:10.308Z,80.54
2022-08-22T13:46:57.994Z,80.55
2022-08-22T13:49:53.379Z,80.37
2022-08-22T13:52:57.917Z,80.40
2022-08-22T13:55:38.888Z,80.32
2022-08-22T13:58:27.032Z,80.45
2022-08-22T14:01:19.905Z,80.51
2022-08-22T14:04:28.700Z,80.40
2022-08-22T14:07:57.241Z,80.56
2022-08-22T14:10:39.800Z,80.67
2022-08-22T14:13:29.377Z,80.65
2022-08-22T14:16:11.683Z,80.55
2022-08-22T14:18:56.425Z,80.45
2022-08-22T14:21:49.040Z,80.38
2022-08-22T14:24:35.767Z,80.24
2022-08-22T14:27:30.490Z,80.04
2022-08-22T14:30:08.180Z,79.96
2022-08-22T14:33:14.941Z,79.82
2022-08-22T14:35:53.013Z,79.68
2022-08-22T14:38:34.188Z,79.61
2022-08-22T14:41:23.462Z,79.57
2022-08-22T14:44:03.143Z,79.31
2022-08-22T14:46:46.221Z,79.12
2022-08-22T14:49:30.442Z,78.89
2022-08-22T14:52:19.762Z,78.73
2022-08-22T14:54:51.022Z,78.58
2022-08-22T14:57:21.237Z,78.32
2022-08-22T14:59:53.896Z,77.92
2022-08-22T15:02:35.210Z,77.55
2022-08-22T15:05:22.069Z,77.28
2022-08-22T15:08:00.330Z,76.90
2022-08-22T15:10:37.350Z,76.66
2022-08-22T15:13:13.026Z,76.63
2022-08-22T15:15:54.394Z,76.22
2022-08-22T15:18:33.343Z,75.98
2022-08-22T15:21:32.879Z,75.73
2022-08-22T15:24:15.448Z,75.57
2022-08-22T15:26:55.681Z,75.56
2022-08-22T15:29:33.569Z,75.49
2022-08-22T15:32:05.594Z,75.00
2022-08-22T15:34:43.319Z,74.76
2022-08-22T15:37:21.805Z,74.78
2022-08-22T15:40:15.988Z,74.31
2022-08-22T15:42:52.461Z,74.12
2022-08-22T15:45:37.629Z,74.11
2022-08-22T15:48:37.482Z,74.16
2022-08-22T15:51:11.925Z,74.55
2022-08-22T15:53:47.271Z,74.77
2022-08-22T15:56:40.210Z,75.16
2022-08-22T15:59:47.848Z,75.04
2022-08-22T16:02:57.086Z,75.04
2022-08-22T16:05:55.196Z,75.18
2022-08-22T16:08:51.432Z,74.70
2022-08-22T16:11:36.429Z,75.09
2022-08-22T16:14:51.085Z,74.83
2022-08-22T16:17:31.785Z,74.23
2022-08-22T16:20:19.346Z,74.02
2022-08-22T16:23:01.382Z,73.71
2022-08-22T16:25:49.415Z,73.87
2022-08-22T16:28:58.925Z,73.79
2022-08-22T16:31:49.163Z,73.40
2022-08-22T16:34:18.688Z,73.02
2022-08-22T16:37:16.131Z,72.70
2022-08-22T16:40:16.545Z,72.89
2022-08-22T16:42:52.731Z,72.90
2022-08-22T16:45:37.846Z,72.75
2022-08-22T16:48:36.654Z,72.94
2022-08-22T16:51:22.672Z,72.88
2022-08-22T16:54:10.483Z,72.79
2022-08-22T16:56:54.446Z,72.08
2022-08-22T16:59:48.319Z,71.96
2022-08-22T17:02:59.681Z,71.30
2022-08-22T17:05:59.931Z,71.01
2022-08-22T17:08:55.719Z,71.17
2022-08-22T17:12:14.738Z,71.44
2022-08-22T17:15:17.249Z,69.81
2022-08-22T17:18:32.473Z,69.44
2022-08-22T17:21:08.658Z,69.19
2022-08-22T17:24:36.738Z,68.44
2022-08-22T17:27:46.289Z,68.27
2022-08-22T17:30:26.464Z,68.29
2022-08-22T17:33:10.735Z,67.78
2022-08-22T17:35:52.517Z,67.63
2022-08-22T17:39:15.343Z,67.91
2022-08-22T17:42:20.928Z,68.03
2022-08-22T17:45:23.400Z,68.15
2022-08-22T17:48:36.340Z,67.65
2022-08-22T17:51:30.279Z,68.20
2022-08-22T17:54:34.849Z,69.04
2022-08-22T17:57:35.527Z,69.37
2022-08-22T18:00:18.718Z,70.16
2022-08-22T18:03:30.061Z,70.00
2022-08-22T18:06:19.298Z,69.28
2022-08-22T18:09:16.000Z,67.91
2022-08-22T18:12:03.459Z,66.65
2022-08-22T18:15:02.408Z,65.04
2022-08-22T18:17:55.859Z,64.74
2022-08-22T18:21:16.315Z,63.78
2022-08-22T18:24:00.427Z,63.58
2022-08-22T18:26:32.852Z,64.18
2022-08-22T18:29:18.396Z,63.97
2022-08-22T18:32:10.992Z,63.93
2022-08-22T18:34:48.546Z,64.25
2022-08-22T18:37:36.267Z,64.85
2022-08-22T18:40:09.366Z,65.70
2022-08-22T18:42:54.722Z,65.37
2022-08-22T18:45:49.960Z,65.29
2022-08-22T18:48:32.035Z,65.50
2022-08-22T18:51:21.249Z,64.59
2022-08-22T18:54:00.220Z,64.50
2022-08-22T18:56:58.484Z,64.29
2022-08-22T18:59:45.390Z,63.15
2022-08-22T19:03:00.833Z,62.23
2022-08-22T19:05:52.067Z,61.02
2022-08-22T19:08:40.117Z,59.73
2022-08-22T19:11:36.879Z,58.72
2022-08-22T19:14:49.060Z,58.32
2022-08-22T19:17:42.683Z,57.95
2022-08-22T19:20:53.440Z,57.11
2022-08-22T19:23:38.177Z,56.59
2022-08-22T19:26:42.088Z,57.51
2022-08-22T19:29:25.356Z,58.31
2022-08-22T19:32:02.980Z,57.13
2022-08-22T19:34:46.887Z,56.29
2022-08-22T19:37:33.722Z,55.71
2022-08-22T19:40:11.467Z,56.05
2022-08-22T19:42:45.124Z,55.89
2022-08-22T19:45:30.005Z,55.07
2022-08-22T19:48:14.115Z,53.74
2022-08-22T19:50:45.257Z,52.49
2022-08-22T19:54:00.448Z,51.88
2022-08-22T19:57:14.813Z,50.29
2022-08-22T20:00:09.551Z,50.80
2022-08-22T20:03:05.347Z,50.55
2022-08-22T20:06:13.756Z,49.84
2022-08-22T20:09:47.287Z,49.13
2022-08-22T20:13:03.331Z,48.61
2022-08-22T20:15:44.791Z,48.22
2022-08-22T20:19:14.620Z,47.45
2022-08-22T20:22:08.938Z,46.28
2022-08-22T20:24:53.729Z,46.12
2022-08-22T20:27:25.691Z,44.91
2022-08-22T20:30:23.057Z,43.69
2022-08-22T20:33:07.867Z,41.80
2022-08-22T20:35:47.013Z,41.40
2022-08-22T20:38:23.555Z,42.42
2022-08-22T20:41:21.042Z,42.06
2022-08-22T20:44:20.549Z,40.87
2022-08-22T20:46:58.788Z,39.98
2022-08-22T20:49:32.599Z,39.96
2022-08-22T20:52:09.522Z,40.42
2022-08-22T20:54:42.356Z,39.39
2022-08-22T20:57:21.695Z,38.50
2022-08-22T21:00:15.600Z,38.46
2022-08-22T21:03:00.188Z,38.76
2022-08-22T21:05:49.610Z,37.41
2022-08-22T21:08:27.325Z,37.74
2022-08-22T21:11:23.495Z,38.19
2022-08-22T21:13:54.530Z,39.68
2022-08-22T21:16:35.127Z,40.34
2022-08-22T21:19:04.578Z,40.55
2022-08-22T21:21:36.435Z,40.61
2022-08-22T21:24:10.772Z,41.08
2022-08-22T21:26:50.338Z,41.68
2022-08-22T21:29:19.706Z,41.73
2022-08-22T21:32:04.484Z,41.72
2022-08-22T21:34:45.882Z,42.33
2022-08-22T21:37:24.337Z,42.29
2022-08-22T21:40:16.329Z,43.48
2022-08-22T21:43:14.697Z,43.15
2022-08-22T21:45:47.944Z,42.62
2022-08-22T21:48:42.074Z,42.23
2022-08-22T21:51:48.031Z,41.85
2022-08-22T21:54:29.396Z,42.00
2022-08-22T21:57:17.054Z,41.70
2022-08-22T21:59:59.667Z,41.93
2022-08-22T22:02:40.554Z,42.53
2022-08-22T22:05:18.778Z,43.32
2022-08-22T22:07:49.615Z,43.59
2022-08-22T22:10:24.003Z,43.59
2022-08-22T22:12:57.924Z,43.75
2022-08-22T22:15:33.066Z,44.31
2022-08-22T22:18:02.993Z,44.19
2022-08-22T22:20:32.197Z,44.96
2022-08-22T22:23:01.621Z,44.83
2022-08-22T22:25:40.127Z,44.81
2022-08-22T22:28:23.349Z,44.86
2022-08-22T22:30:57.170Z,45.18
2022-08-22T22:33:32.276Z,45.51
2022-08-22T22:36:09.036Z,45.88
2022-08-22T22:38:40.891Z,46.05
2022-08-22T22:41:10.398Z,46.15
2022-08-22T22:43:40.297Z,45.56
2022-08-22T22:46:09.777Z,45.65
2022-08-22T22:48:39.105Z,46.36
2022-08-22T22:51:13.825Z,47.11
2022-08-22T22:53:43.909Z,48.38
2022-08-22T22:56:21.539Z,48.05
2022-08-22T22:59:00.924Z,46.84
2022-08-22T23:02:03.064Z,45.55
2022-08-22T23:04:34.592Z,44.38
2022-08-22T23:07:05.050Z,42.87
2022-08-22T23:09:38.486Z,41.53
2022-08-22T23:12:16.811Z,41.34
2022-08-22T23:14:46.179Z,41.80
2022-08-22T23:17:16.201Z,41.35
2022-08-22T23:19:46.302Z,41.48
2022-08-22T23:22:16.955Z,41.42
2022-08-22T23:24:46.563Z,40.88
2022-08-22T23:27:16.142Z,41.26
2022-08-22T23:29:45.902Z,41.14
2022-08-22T23:32:16.066Z,40.68
2022-08-22T23:34:49.250Z,41.49
2022-08-22T23:37:23.204Z,42.11
2022-08-22T23:39:52.687Z,42.48
2022-08-22T23:42:21.955Z,43.04
2022-08-22T23:44:51.269Z,43.57
2022-08-22T23:47:21.134Z,43.85
2022-08-22T23:49:50.479Z,43.92
2022-08-22T23:52:22.136Z,43.52
2022-08-22T23:54:55.871Z,43.63
2022-08-22T23:57:26.442Z,43.35
2022-08-22T23:59:58.446Z,42.92
